sensor_id;sensor_type;location;lat;lon;timestamp;P1;durP1;ratioP1;P2;durP2;ratioP2
30505;SDS011;17292;51.600;4.994;2023-04-28T00:00:06;4.20;;;2.38;;
30505;SDS011;17292;51.600;4.994;2023-04-28T00:02:33;3.40;;;2.15;;
30505;SDS011;17292;51.600;4.994;2023-04-28T00:04:59;5.10;;;2.35;;
30505;SDS011;17292;51.600;4.994;2023-04-28T00:07:25;4.30;;;2.50;;
30505;SDS011;17292;51.600;4.994;2023-04-28T00:09:51;4.40;;;2.75;;
30505;SDS011;17292;51.600;4.994;2023-04-28T00:12:17;4.15;;;2.72;;
30505;SDS011;17292;51.600;4.994;2023-04-28T00:14:43;4.45;;;2.38;;
30505;SDS011;17292;51.600;4.994;2023-04-28T00:17:09;3.80;;;2.65;;
30505;SDS011;17292;51.600;4.994;2023-04-28T00:19:35;3.92;;;2.60;;
30505;SDS011;17292;51.600;4.994;2023-04-28T00:22:02;4.40;;;2.10;;
30505;SDS011;17292;51.600;4.994;2023-04-28T00:24:29;3.80;;;2.50;;
30505;SDS011;17292;51.600;4.994;2023-04-28T00:26:56;5.15;;;2.47;;
30505;SDS011;17292;51.600;4.994;2023-04-28T00:29:22;3.83;;;2.50;;
30505;SDS011;17292;51.600;4.994;2023-04-28T00:31:48;3.63;;;2.20;;
30505;SDS011;17292;51.600;4.994;2023-04-28T00:34:15;3.75;;;2.50;;
30505;SDS011;17292;51.600;4.994;2023-04-28T00:36:41;3.28;;;2.08;;
30505;SDS011;17292;51.600;4.994;2023-04-28T00:39:07;3.00;;;2.22;;
30505;SDS011;17292;51.600;4.994;2023-04-28T00:41:34;3.80;;;2.47;;
30505;SDS011;17292;51.600;4.994;2023-04-28T00:44:00;4.55;;;2.42;;
30505;SDS011;17292;51.600;4.994;2023-04-28T00:46:27;3.08;;;2.03;;
30505;SDS011;17292;51.600;4.994;2023-04-28T00:48:54;2.78;;;2.10;;
30505;SDS011;17292;51.600;4.994;2023-04-28T00:51:20;2.95;;;2.10;;
30505;SDS011;17292;51.600;4.994;2023-04-28T00:53:46;3.58;;;2.40;;
30505;SDS011;17292;51.600;4.994;2023-04-28T00:56:13;2.88;;;1.92;;
30505;SDS011;17292;51.600;4.994;2023-04-28T00:58:39;2.47;;;2.28;;
30505;SDS011;17292;51.600;4.994;2023-04-28T01:01:07;3.60;;;2.17;;
30505;SDS011;17292;51.600;4.994;2023-04-28T01:03:34;3.80;;;2.53;;
30505;SDS011;17292;51.600;4.994;2023-04-28T01:06:03;4.75;;;2.30;;
30505;SDS011;17292;51.600;4.994;2023-04-28T01:08:29;2.40;;;2.05;;
30505;SDS011;17292;51.600;4.994;2023-04-28T01:10:56;5.47;;;2.50;;
30505;SDS011;17292;51.600;4.994;2023-04-28T01:13:22;3.38;;;2.30;;
30505;SDS011;17292;51.600;4.994;2023-04-28T01:15:49;2.53;;;1.98;;
30505;SDS011;17292;51.600;4.994;2023-04-28T01:18:15;3.83;;;2.25;;
30505;SDS011;17292;51.600;4.994;2023-04-28T01:20:41;2.70;;;2.45;;
30505;SDS011;17292;51.600;4.994;2023-04-28T01:23:11;3.15;;;2.10;;
30505;SDS011;17292;51.600;4.994;2023-04-28T01:25:37;4.13;;;2.15;;
30505;SDS011;17292;51.600;4.994;2023-04-28T01:28:03;3.97;;;2.45;;
30505;SDS011;17292;51.600;4.994;2023-04-28T01:30:30;5.68;;;2.60;;
30505;SDS011;17292;51.600;4.994;2023-04-28T01:32:56;3.10;;;2.42;;
30505;SDS011;17292;51.600;4.994;2023-04-28T01:35:22;3.45;;;2.20;;
30505;SDS011;17292;51.600;4.994;2023-04-28T01:37:49;3.55;;;2.60;;
30505;SDS011;17292;51.600;4.994;2023-04-28T01:40:15;4.60;;;2.20;;
30505;SDS011;17292;51.600;4.994;2023-04-28T01:42:41;2.55;;;2.03;;
30505;SDS011;17292;51.600;4.994;2023-04-28T01:45:07;2.75;;;2.15;;
30505;SDS011;17292;51.600;4.994;2023-04-28T01:47:34;4.13;;;2.40;;
30505;SDS011;17292;51.600;4.994;2023-04-28T01:50:00;3.33;;;2.50;;
30505;SDS011;17292;51.600;4.994;2023-04-28T01:52:26;2.83;;;2.42;;
30505;SDS011;17292;51.600;4.994;2023-04-28T01:54:53;2.53;;;2.33;;
30505;SDS011;17292;51.600;4.994;2023-04-28T01:57:19;2.95;;;2.22;;
30505;SDS011;17292;51.600;4.994;2023-04-28T01:59:45;3.63;;;2.22;;
30505;SDS011;17292;51.600;4.994;2023-04-28T02:02:11;4.30;;;2.60;;
30505;SDS011;17292;51.600;4.994;2023-04-28T02:04:38;4.97;;;2.40;;
30505;SDS011;17292;51.600;4.994;2023-04-28T02:07:04;4.45;;;2.17;;
30505;SDS011;17292;51.600;4.994;2023-04-28T02:09:31;3.35;;;2.30;;
30505;SDS011;17292;51.600;4.994;2023-04-28T02:11:57;3.63;;;2.30;;
30505;SDS011;17292;51.600;4.994;2023-04-28T02:14:26;2.45;;;1.92;;
30505;SDS011;17292;51.600;4.994;2023-04-28T02:16:52;4.05;;;2.50;;
30505;SDS011;17292;51.600;4.994;2023-04-28T02:19:19;4.10;;;2.38;;
30505;SDS011;17292;51.600;4.994;2023-04-28T02:21:45;2.70;;;2.28;;
30505;SDS011;17292;51.600;4.994;2023-04-28T02:24:11;2.03;;;1.90;;
30505;SDS011;17292;51.600;4.994;2023-04-28T02:26:37;2.97;;;2.30;;
30505;SDS011;17292;51.600;4.994;2023-04-28T02:29:03;2.38;;;2.28;;
30505;SDS011;17292;51.600;4.994;2023-04-28T02:31:30;5.60;;;2.53;;
30505;SDS011;17292;51.600;4.994;2023-04-28T02:33:56;4.07;;;2.45;;
30505;SDS011;17292;51.600;4.994;2023-04-28T02:36:22;3.72;;;2.05;;
30505;SDS011;17292;51.600;4.994;2023-04-28T02:38:48;3.15;;;2.05;;
30505;SDS011;17292;51.600;4.994;2023-04-28T02:41:14;2.20;;;2.00;;
30505;SDS011;17292;51.600;4.994;2023-04-28T02:43:40;3.72;;;2.13;;
30505;SDS011;17292;51.600;4.994;2023-04-28T02:46:06;2.67;;;2.13;;
30505;SDS011;17292;51.600;4.994;2023-04-28T02:48:33;3.00;;;1.80;;
30505;SDS011;17292;51.600;4.994;2023-04-28T02:51:01;3.38;;;2.17;;
30505;SDS011;17292;51.600;4.994;2023-04-28T02:53:27;2.45;;;2.15;;
30505;SDS011;17292;51.600;4.994;2023-04-28T02:55:53;2.75;;;2.20;;
30505;SDS011;17292;51.600;4.994;2023-04-28T02:58:19;3.45;;;2.50;;
30505;SDS011;17292;51.600;4.994;2023-04-28T03:00:45;2.33;;;2.10;;
30505;SDS011;17292;51.600;4.994;2023-04-28T03:03:11;3.25;;;2.33;;
30505;SDS011;17292;51.600;4.994;2023-04-28T03:05:38;2.80;;;2.15;;
30505;SDS011;17292;51.600;4.994;2023-04-28T03:08:04;4.22;;;2.35;;
30505;SDS011;17292;51.600;4.994;2023-04-28T03:10:30;2.13;;;1.92;;
30505;SDS011;17292;51.600;4.994;2023-04-28T03:12:56;2.50;;;2.20;;
30505;SDS011;17292;51.600;4.994;2023-04-28T03:15:22;2.58;;;2.00;;
30505;SDS011;17292;51.600;4.994;2023-04-28T03:17:48;2.28;;;2.08;;
30505;SDS011;17292;51.600;4.994;2023-04-28T03:20:14;3.50;;;2.28;;
30505;SDS011;17292;51.600;4.994;2023-04-28T03:22:41;3.33;;;2.38;;
30505;SDS011;17292;51.600;4.994;2023-04-28T03:25:07;3.00;;;2.10;;
30505;SDS011;17292;51.600;4.994;2023-04-28T03:27:33;3.40;;;2.20;;
30505;SDS011;17292;51.600;4.994;2023-04-28T03:29:59;3.38;;;2.28;;
30505;SDS011;17292;51.600;4.994;2023-04-28T03:32:25;3.30;;;2.30;;
30505;SDS011;17292;51.600;4.994;2023-04-28T03:34:52;3.35;;;2.20;;
30505;SDS011;17292;51.600;4.994;2023-04-28T03:37:18;2.70;;;1.83;;
30505;SDS011;17292;51.600;4.994;2023-04-28T03:39:44;4.05;;;2.13;;
30505;SDS011;17292;51.600;4.994;2023-04-28T03:42:10;4.40;;;1.90;;
30505;SDS011;17292;51.600;4.994;2023-04-28T03:44:36;2.85;;;2.20;;
30505;SDS011;17292;51.600;4.994;2023-04-28T03:47:02;4.20;;;2.15;;
30505;SDS011;17292;51.600;4.994;2023-04-28T03:49:28;3.20;;;2.60;;
30505;SDS011;17292;51.600;4.994;2023-04-28T03:51:55;1.95;;;1.85;;
30505;SDS011;17292;51.600;4.994;2023-04-28T03:54:21;3.20;;;2.25;;
30505;SDS011;17292;51.600;4.994;2023-04-28T03:56:47;3.05;;;2.35;;
30505;SDS011;17292;51.600;4.994;2023-04-28T03:59:13;4.57;;;2.53;;
30505;SDS011;17292;51.600;4.994;2023-04-28T04:01:39;2.38;;;2.00;;
30505;SDS011;17292;51.600;4.994;2023-04-28T04:04:05;2.75;;;2.25;;
30505;SDS011;17292;51.600;4.994;2023-04-28T04:06:32;3.08;;;2.65;;
30505;SDS011;17292;51.600;4.994;2023-04-28T04:08:58;3.20;;;2.03;;
30505;SDS011;17292;51.600;4.994;2023-04-28T04:11:24;5.47;;;2.60;;
30505;SDS011;17292;51.600;4.994;2023-04-28T04:13:50;3.72;;;2.80;;
30505;SDS011;17292;51.600;4.994;2023-04-28T04:16:16;2.40;;;2.20;;
30505;SDS011;17292;51.600;4.994;2023-04-28T04:18:42;3.75;;;2.10;;
30505;SDS011;17292;51.600;4.994;2023-04-28T04:21:09;3.03;;;2.20;;
30505;SDS011;17292;51.600;4.994;2023-04-28T04:23:35;2.28;;;2.05;;
30505;SDS011;17292;51.600;4.994;2023-04-28T04:26:02;3.38;;;2.15;;
30505;SDS011;17292;51.600;4.994;2023-04-28T04:28:28;2.78;;;2.38;;
30505;SDS011;17292;51.600;4.994;2023-04-28T04:30:54;2.55;;;2.20;;
30505;SDS011;17292;51.600;4.994;2023-04-28T04:33:20;2.78;;;2.47;;
30505;SDS011;17292;51.600;4.994;2023-04-28T04:35:47;3.72;;;2.30;;
30505;SDS011;17292;51.600;4.994;2023-04-28T04:38:13;3.15;;;2.30;;
30505;SDS011;17292;51.600;4.994;2023-04-28T04:40:39;3.30;;;2.60;;
30505;SDS011;17292;51.600;4.994;2023-04-28T04:43:05;2.53;;;2.33;;
30505;SDS011;17292;51.600;4.994;2023-04-28T04:45:31;2.50;;;2.20;;
30505;SDS011;17292;51.600;4.994;2023-04-28T04:47:58;2.97;;;2.42;;
30505;SDS011;17292;51.600;4.994;2023-04-28T04:50:24;2.40;;;1.95;;
30505;SDS011;17292;51.600;4.994;2023-04-28T04:52:50;2.65;;;2.10;;
30505;SDS011;17292;51.600;4.994;2023-04-28T04:55:18;2.85;;;2.13;;
30505;SDS011;17292;51.600;4.994;2023-04-28T04:57:44;5.88;;;2.10;;
30505;SDS011;17292;51.600;4.994;2023-04-28T05:00:11;2.05;;;1.95;;
30505;SDS011;17292;51.600;4.994;2023-04-28T05:02:37;5.70;;;1.90;;
30505;SDS011;17292;51.600;4.994;2023-04-28T05:05:04;2.38;;;2.17;;
30505;SDS011;17292;51.600;4.994;2023-04-28T05:07:30;2.47;;;1.90;;
30505;SDS011;17292;51.600;4.994;2023-04-28T05:09:56;4.95;;;2.25;;
30505;SDS011;17292;51.600;4.994;2023-04-28T05:12:22;2.75;;;1.85;;
30505;SDS011;17292;51.600;4.994;2023-04-28T05:14:48;5.47;;;2.00;;
30505;SDS011;17292;51.600;4.994;2023-04-28T05:17:14;9.88;;;2.53;;
30505;SDS011;17292;51.600;4.994;2023-04-28T05:19:41;4.05;;;2.20;;
30505;SDS011;17292;51.600;4.994;2023-04-28T05:22:07;7.13;;;2.00;;
30505;SDS011;17292;51.600;4.994;2023-04-28T05:24:33;5.25;;;2.15;;
30505;SDS011;17292;51.600;4.994;2023-04-28T05:26:59;12.52;;;2.53;;
30505;SDS011;17292;51.600;4.994;2023-04-28T05:29:25;4.47;;;2.10;;
30505;SDS011;17292;51.600;4.994;2023-04-28T05:31:52;5.72;;;2.30;;
30505;SDS011;17292;51.600;4.994;2023-04-28T05:34:18;8.45;;;2.53;;
30505;SDS011;17292;51.600;4.994;2023-04-28T05:36:44;6.00;;;2.00;;
30505;SDS011;17292;51.600;4.994;2023-04-28T05:39:10;6.05;;;2.10;;
30505;SDS011;17292;51.600;4.994;2023-04-28T05:41:36;14.20;;;2.40;;
30505;SDS011;17292;51.600;4.994;2023-04-28T05:44:02;2.90;;;1.80;;
30505;SDS011;17292;51.600;4.994;2023-04-28T05:46:29;3.92;;;2.17;;
30505;SDS011;17292;51.600;4.994;2023-04-28T05:48:55;4.68;;;2.20;;
30505;SDS011;17292;51.600;4.994;2023-04-28T05:51:22;8.07;;;2.20;;
30505;SDS011;17292;51.600;4.994;2023-04-28T05:53:48;6.68;;;2.35;;
30505;SDS011;17292;51.600;4.994;2023-04-28T05:56:14;6.78;;;2.03;;
30505;SDS011;17292;51.600;4.994;2023-04-28T05:58:41;3.00;;;1.65;;
30505;SDS011;17292;51.600;4.994;2023-04-28T06:01:10;4.07;;;1.70;;
30505;SDS011;17292;51.600;4.994;2023-04-28T06:03:36;4.35;;;2.00;;
30505;SDS011;17292;51.600;4.994;2023-04-28T06:06:04;5.28;;;2.45;;
30505;SDS011;17292;51.600;4.994;2023-04-28T06:08:31;7.80;;;2.30;;
30505;SDS011;17292;51.600;4.994;2023-04-28T06:10:57;4.47;;;2.30;;
30505;SDS011;17292;51.600;4.994;2023-04-28T06:13:23;10.93;;;2.33;;
30505;SDS011;17292;51.600;4.994;2023-04-28T06:15:49;4.00;;;1.98;;
30505;SDS011;17292;51.600;4.994;2023-04-28T06:18:15;3.08;;;2.00;;
30505;SDS011;17292;51.600;4.994;2023-04-28T06:20:41;2.83;;;2.47;;
30505;SDS011;17292;51.600;4.994;2023-04-28T06:23:07;3.13;;;1.52;;
30505;SDS011;17292;51.600;4.994;2023-04-28T06:25:34;2.75;;;2.17;;
30505;SDS011;17292;51.600;4.994;2023-04-28T06:28:01;5.22;;;2.20;;
30505;SDS011;17292;51.600;4.994;2023-04-28T06:30:27;4.22;;;2.00;;
30505;SDS011;17292;51.600;4.994;2023-04-28T06:32:53;7.75;;;2.03;;
30505;SDS011;17292;51.600;4.994;2023-04-28T06:35:22;22.48;;;4.03;;
30505;SDS011;17292;51.600;4.994;2023-04-28T06:37:48;12.32;;;2.53;;
30505;SDS011;17292;51.600;4.994;2023-04-28T06:40:14;7.70;;;2.53;;
30505;SDS011;17292;51.600;4.994;2023-04-28T06:42:41;9.90;;;2.42;;
30505;SDS011;17292;51.600;4.994;2023-04-28T06:45:07;12.45;;;2.67;;
30505;SDS011;17292;51.600;4.994;2023-04-28T06:47:33;8.18;;;2.38;;
30505;SDS011;17292;51.600;4.994;2023-04-28T06:50:01;9.52;;;2.85;;
30505;SDS011;17292;51.600;4.994;2023-04-28T06:52:27;4.30;;;2.30;;
30505;SDS011;17292;51.600;4.994;2023-04-28T06:54:54;8.77;;;2.20;;
30505;SDS011;17292;51.600;4.994;2023-04-28T06:57:20;4.18;;;2.65;;
30505;SDS011;17292;51.600;4.994;2023-04-28T06:59:46;8.70;;;2.53;;
30505;SDS011;17292;51.600;4.994;2023-04-28T07:02:13;11.95;;;2.75;;
30505;SDS011;17292;51.600;4.994;2023-04-28T07:04:39;9.32;;;2.47;;
30505;SDS011;17292;51.600;4.994;2023-04-28T07:07:05;7.65;;;2.50;;
30505;SDS011;17292;51.600;4.994;2023-04-28T07:09:35;10.45;;;2.45;;
30505;SDS011;17292;51.600;4.994;2023-04-28T07:12:02;6.90;;;2.35;;
30505;SDS011;17292;51.600;4.994;2023-04-28T07:14:28;10.95;;;2.55;;
30505;SDS011;17292;51.600;4.994;2023-04-28T07:16:54;12.52;;;2.58;;
30505;SDS011;17292;51.600;4.994;2023-04-28T07:19:21;8.60;;;2.33;;
30505;SDS011;17292;51.600;4.994;2023-04-28T07:21:47;11.07;;;2.08;;
30505;SDS011;17292;51.600;4.994;2023-04-28T07:24:13;10.35;;;2.53;;
30505;SDS011;17292;51.600;4.994;2023-04-28T07:26:39;6.10;;;2.60;;
30505;SDS011;17292;51.600;4.994;2023-04-28T07:29:05;8.10;;;2.50;;
30505;SDS011;17292;51.600;4.994;2023-04-28T07:31:33;7.47;;;2.88;;
30505;SDS011;17292;51.600;4.994;2023-04-28T07:33:59;6.90;;;2.53;;
30505;SDS011;17292;51.600;4.994;2023-04-28T07:36:25;13.90;;;2.65;;
30505;SDS011;17292;51.600;4.994;2023-04-28T07:38:52;8.57;;;2.53;;
30505;SDS011;17292;51.600;4.994;2023-04-28T07:41:18;10.00;;;2.50;;
30505;SDS011;17292;51.600;4.994;2023-04-28T07:43:44;7.53;;;2.60;;
30505;SDS011;17292;51.600;4.994;2023-04-28T07:46:11;10.00;;;2.20;;
30505;SDS011;17292;51.600;4.994;2023-04-28T07:48:37;9.20;;;2.80;;
30505;SDS011;17292;51.600;4.994;2023-04-28T07:51:03;12.75;;;2.80;;
30505;SDS011;17292;51.600;4.994;2023-04-28T07:53:29;7.68;;;2.42;;
30505;SDS011;17292;51.600;4.994;2023-04-28T07:55:55;6.22;;;2.78;;
30505;SDS011;17292;51.600;4.994;2023-04-28T07:58:22;15.25;;;2.65;;
30505;SDS011;17292;51.600;4.994;2023-04-28T08:00:48;8.10;;;2.50;;
30505;SDS011;17292;51.600;4.994;2023-04-28T08:03:14;9.70;;;3.13;;
30505;SDS011;17292;51.600;4.994;2023-04-28T08:05:40;10.25;;;2.92;;
30505;SDS011;17292;51.600;4.994;2023-04-28T08:08:08;10.88;;;2.25;;
30505;SDS011;17292;51.600;4.994;2023-04-28T08:10:35;16.27;;;3.72;;
30505;SDS011;17292;51.600;4.994;2023-04-28T08:13:04;17.65;;;4.25;;
30505;SDS011;17292;51.600;4.994;2023-04-28T08:15:30;12.77;;;3.05;;
30505;SDS011;17292;51.600;4.994;2023-04-28T08:17:56;11.93;;;3.20;;
30505;SDS011;17292;51.600;4.994;2023-04-28T08:20:22;11.50;;;3.33;;
30505;SDS011;17292;51.600;4.994;2023-04-28T08:22:49;12.45;;;2.80;;
30505;SDS011;17292;51.600;4.994;2023-04-28T08:25:15;9.27;;;3.05;;
30505;SDS011;17292;51.600;4.994;2023-04-28T08:27:42;13.63;;;3.13;;
30505;SDS011;17292;51.600;4.994;2023-04-28T08:30:08;13.35;;;3.05;;
30505;SDS011;17292;51.600;4.994;2023-04-28T08:32:35;12.50;;;3.05;;
30505;SDS011;17292;51.600;4.994;2023-04-28T08:35:01;13.85;;;2.97;;
30505;SDS011;17292;51.600;4.994;2023-04-28T08:37:27;10.02;;;2.75;;
30505;SDS011;17292;51.600;4.994;2023-04-28T08:39:53;15.43;;;3.17;;
30505;SDS011;17292;51.600;4.994;2023-04-28T08:42:29;7.03;;;2.63;;
30505;SDS011;17292;51.600;4.994;2023-04-28T08:44:56;5.38;;;2.60;;
30505;SDS011;17292;51.600;4.994;2023-04-28T08:47:23;12.15;;;2.60;;
30505;SDS011;17292;51.600;4.994;2023-04-28T08:49:53;12.40;;;3.22;;
30505;SDS011;17292;51.600;4.994;2023-04-28T08:52:20;10.43;;;2.83;;
30505;SDS011;17292;51.600;4.994;2023-04-28T08:54:46;10.93;;;2.50;;
30505;SDS011;17292;51.600;4.994;2023-04-28T08:57:13;11.80;;;3.53;;
30505;SDS011;17292;51.600;4.994;2023-04-28T08:59:39;13.13;;;3.00;;
30505;SDS011;17292;51.600;4.994;2023-04-28T09:02:07;7.07;;;2.60;;
30505;SDS011;17292;51.600;4.994;2023-04-28T09:04:33;7.45;;;2.45;;
30505;SDS011;17292;51.600;4.994;2023-04-28T09:06:59;7.50;;;2.47;;
30505;SDS011;17292;51.600;4.994;2023-04-28T09:09:26;11.27;;;2.63;;
30505;SDS011;17292;51.600;4.994;2023-04-28T09:14:20;9.05;;;2.95;;
30505;SDS011;17292;51.600;4.994;2023-04-28T09:16:47;8.48;;;2.28;;
30505;SDS011;17292;51.600;4.994;2023-04-28T09:19:14;8.75;;;2.38;;
30505;SDS011;17292;51.600;4.994;2023-04-28T09:21:48;8.88;;;2.47;;
30505;SDS011;17292;51.600;4.994;2023-04-28T09:26:59;9.07;;;2.40;;
30505;SDS011;17292;51.600;4.994;2023-04-28T09:29:26;10.32;;;2.50;;
30505;SDS011;17292;51.600;4.994;2023-04-28T09:31:53;7.90;;;2.95;;
30505;SDS011;17292;51.600;4.994;2023-04-28T09:34:20;6.68;;;2.97;;
30505;SDS011;17292;51.600;4.994;2023-04-28T09:36:46;8.05;;;2.92;;
30505;SDS011;17292;51.600;4.994;2023-04-28T09:39:13;7.13;;;2.97;;
30505;SDS011;17292;51.600;4.994;2023-04-28T09:41:39;9.57;;;2.63;;
30505;SDS011;17292;51.600;4.994;2023-04-28T09:46:35;6.38;;;2.67;;
30505;SDS011;17292;51.600;4.994;2023-04-28T09:49:01;16.42;;;2.50;;
30505;SDS011;17292;51.600;4.994;2023-04-28T09:51:27;8.27;;;2.75;;
30505;SDS011;17292;51.600;4.994;2023-04-28T09:53:54;10.30;;;2.70;;
30505;SDS011;17292;51.600;4.994;2023-04-28T09:56:21;10.55;;;2.75;;
30505;SDS011;17292;51.600;4.994;2023-04-28T09:58:49;9.45;;;2.58;;
30505;SDS011;17292;51.600;4.994;2023-04-28T10:01:17;9.25;;;2.88;;
30505;SDS011;17292;51.600;4.994;2023-04-28T10:03:43;8.18;;;2.60;;
30505;SDS011;17292;51.600;4.994;2023-04-28T10:06:10;8.60;;;2.78;;
30505;SDS011;17292;51.600;4.994;2023-04-28T10:08:36;10.02;;;2.80;;
30505;SDS011;17292;51.600;4.994;2023-04-28T10:11:04;10.55;;;2.95;;
30505;SDS011;17292;51.600;4.994;2023-04-28T10:13:30;16.63;;;3.15;;
30505;SDS011;17292;51.600;4.994;2023-04-28T10:15:57;14.23;;;3.55;;
30505;SDS011;17292;51.600;4.994;2023-04-28T10:18:23;15.02;;;3.28;;
30505;SDS011;17292;51.600;4.994;2023-04-28T10:20:54;8.30;;;2.88;;
30505;SDS011;17292;51.600;4.994;2023-04-28T10:26:11;15.15;;;3.40;;
30505;SDS011;17292;51.600;4.994;2023-04-28T10:28:47;7.63;;;2.90;;
30505;SDS011;17292;51.600;4.994;2023-04-28T10:31:15;12.02;;;2.80;;
30505;SDS011;17292;51.600;4.994;2023-04-28T10:33:41;12.15;;;3.03;;
30505;SDS011;17292;51.600;4.994;2023-04-28T10:36:08;11.45;;;3.03;;
30505;SDS011;17292;51.600;4.994;2023-04-28T10:38:35;12.50;;;3.00;;
30505;SDS011;17292;51.600;4.994;2023-04-28T10:41:35;15.93;;;3.67;;
30505;SDS011;17292;51.600;4.994;2023-04-28T10:44:27;10.65;;;3.10;;
30505;SDS011;17292;51.600;4.994;2023-04-28T10:47:03;15.93;;;3.30;;
30505;SDS011;17292;51.600;4.994;2023-04-28T10:57:46;7.65;;;2.90;;
30505;SDS011;17292;51.600;4.994;2023-04-28T11:00:27;15.98;;;3.50;;
30505;SDS011;17292;51.600;4.994;2023-04-28T11:02:57;12.68;;;2.90;;
30505;SDS011;17292;51.600;4.994;2023-04-28T11:05:23;19.10;;;2.88;;
30505;SDS011;17292;51.600;4.994;2023-04-28T11:13:27;7.05;;;2.80;;
30505;SDS011;17292;51.600;4.994;2023-04-28T11:16:04;14.15;;;3.50;;
30505;SDS011;17292;51.600;4.994;2023-04-28T11:18:33;15.23;;;3.13;;
30505;SDS011;17292;51.600;4.994;2023-04-28T11:21:04;14.13;;;3.00;;
30505;SDS011;17292;51.600;4.994;2023-04-28T11:23:30;10.68;;;2.83;;
30505;SDS011;17292;51.600;4.994;2023-04-28T11:25:56;14.63;;;2.92;;
30505;SDS011;17292;51.600;4.994;2023-04-28T11:28:23;9.95;;;3.08;;
30505;SDS011;17292;51.600;4.994;2023-04-28T11:30:49;22.38;;;4.03;;
30505;SDS011;17292;51.600;4.994;2023-04-28T11:33:15;11.00;;;2.88;;
30505;SDS011;17292;51.600;4.994;2023-04-28T11:35:42;23.10;;;3.63;;
30505;SDS011;17292;51.600;4.994;2023-04-28T11:38:08;12.63;;;3.13;;
30505;SDS011;17292;51.600;4.994;2023-04-28T11:40:34;18.83;;;3.08;;
30505;SDS011;17292;51.600;4.994;2023-04-28T11:43:00;14.15;;;3.67;;
30505;SDS011;17292;51.600;4.994;2023-04-28T11:45:28;16.35;;;2.97;;
30505;SDS011;17292;51.600;4.994;2023-04-28T11:47:54;13.63;;;3.10;;
30505;SDS011;17292;51.600;4.994;2023-04-28T11:50:36;14.43;;;3.13;;
30505;SDS011;17292;51.600;4.994;2023-04-28T11:53:02;15.13;;;3.22;;
30505;SDS011;17292;51.600;4.994;2023-04-28T11:55:28;16.52;;;3.55;;
30505;SDS011;17292;51.600;4.994;2023-04-28T12:00:39;13.32;;;3.15;;
30505;SDS011;17292;51.600;4.994;2023-04-28T12:03:08;11.55;;;3.25;;
30505;SDS011;17292;51.600;4.994;2023-04-28T12:05:34;9.38;;;3.25;;
30505;SDS011;17292;51.600;4.994;2023-04-28T12:08:01;14.32;;;2.95;;
30505;SDS011;17292;51.600;4.994;2023-04-28T12:10:27;13.00;;;3.38;;
30505;SDS011;17292;51.600;4.994;2023-04-28T12:12:54;15.25;;;3.42;;
30505;SDS011;17292;51.600;4.994;2023-04-28T12:15:20;10.40;;;2.72;;
30505;SDS011;17292;51.600;4.994;2023-04-28T12:17:48;13.30;;;2.47;;
30505;SDS011;17292;51.600;4.994;2023-04-28T12:20:36;18.35;;;3.42;;
30505;SDS011;17292;51.600;4.994;2023-04-28T12:23:03;10.20;;;3.30;;
30505;SDS011;17292;51.600;4.994;2023-04-28T12:25:30;17.00;;;3.33;;
30505;SDS011;17292;51.600;4.994;2023-04-28T12:28:01;14.50;;;3.33;;
30505;SDS011;17292;51.600;4.994;2023-04-28T12:30:30;14.95;;;3.50;;
30505;SDS011;17292;51.600;4.994;2023-04-28T12:32:57;12.35;;;3.05;;
30505;SDS011;17292;51.600;4.994;2023-04-28T12:35:24;12.80;;;3.10;;
30505;SDS011;17292;51.600;4.994;2023-04-28T12:37:51;20.80;;;3.25;;
30505;SDS011;17292;51.600;4.994;2023-04-28T12:40:17;15.00;;;3.10;;
30505;SDS011;17292;51.600;4.994;2023-04-28T12:42:44;20.05;;;3.05;;
30505;SDS011;17292;51.600;4.994;2023-04-28T12:45:10;14.70;;;3.83;;
30505;SDS011;17292;51.600;4.994;2023-04-28T12:47:36;19.58;;;3.35;;
30505;SDS011;17292;51.600;4.994;2023-04-28T12:50:04;12.85;;;2.67;;
30505;SDS011;17292;51.600;4.994;2023-04-28T12:52:31;15.63;;;3.10;;
30505;SDS011;17292;51.600;4.994;2023-04-28T12:54:58;15.50;;;3.55;;
30505;SDS011;17292;51.600;4.994;2023-04-28T12:57:25;17.75;;;3.42;;
30505;SDS011;17292;51.600;4.994;2023-04-28T12:59:51;15.40;;;3.35;;
30505;SDS011;17292;51.600;4.994;2023-04-28T13:02:18;19.50;;;4.20;;
30505;SDS011;17292;51.600;4.994;2023-04-28T13:04:44;11.05;;;3.55;;
30505;SDS011;17292;51.600;4.994;2023-04-28T13:07:11;14.65;;;3.47;;
30505;SDS011;17292;51.600;4.994;2023-04-28T13:09:37;13.70;;;2.97;;
30505;SDS011;17292;51.600;4.994;2023-04-28T13:12:04;19.13;;;3.75;;
30505;SDS011;17292;51.600;4.994;2023-04-28T13:14:30;10.23;;;3.08;;
30505;SDS011;17292;51.600;4.994;2023-04-28T13:16:56;25.33;;;3.30;;
30505;SDS011;17292;51.600;4.994;2023-04-28T13:19:23;19.13;;;3.90;;
30505;SDS011;17292;51.600;4.994;2023-04-28T13:21:49;22.48;;;3.67;;
30505;SDS011;17292;51.600;4.994;2023-04-28T13:24:16;18.90;;;3.08;;
30505;SDS011;17292;51.600;4.994;2023-04-28T13:26:42;22.17;;;4.03;;
30505;SDS011;17292;51.600;4.994;2023-04-28T13:29:09;15.15;;;3.58;;
30505;SDS011;17292;51.600;4.994;2023-04-28T13:31:35;13.18;;;2.65;;
30505;SDS011;17292;51.600;4.994;2023-04-28T13:34:01;18.08;;;3.20;;
30505;SDS011;17292;51.600;4.994;2023-04-28T13:36:29;12.60;;;3.45;;
30505;SDS011;17292;51.600;4.994;2023-04-28T13:38:59;13.20;;;3.55;;
30505;SDS011;17292;51.600;4.994;2023-04-28T13:41:25;10.77;;;3.60;;
30505;SDS011;17292;51.600;4.994;2023-04-28T13:43:52;13.75;;;3.83;;
30505;SDS011;17292;51.600;4.994;2023-04-28T13:46:18;34.65;;;6.18;;
30505;SDS011;17292;51.600;4.994;2023-04-28T13:48:45;17.77;;;3.72;;
30505;SDS011;17292;51.600;4.994;2023-04-28T13:51:11;19.38;;;3.55;;
30505;SDS011;17292;51.600;4.994;2023-04-28T13:53:37;11.63;;;3.03;;
30505;SDS011;17292;51.600;4.994;2023-04-28T13:56:04;17.65;;;4.47;;
30505;SDS011;17292;51.600;4.994;2023-04-28T13:58:30;19.02;;;3.55;;
30505;SDS011;17292;51.600;4.994;2023-04-28T14:00:57;15.27;;;4.13;;
30505;SDS011;17292;51.600;4.994;2023-04-28T14:03:24;23.65;;;3.97;;
30505;SDS011;17292;51.600;4.994;2023-04-28T14:05:51;19.35;;;3.78;;
30505;SDS011;17292;51.600;4.994;2023-04-28T14:08:17;14.35;;;3.25;;
30505;SDS011;17292;51.600;4.994;2023-04-28T14:10:43;15.30;;;2.90;;
30505;SDS011;17292;51.600;4.994;2023-04-28T14:13:10;8.95;;;3.08;;
30505;SDS011;17292;51.600;4.994;2023-04-28T14:15:36;19.98;;;3.58;;
30505;SDS011;17292;51.600;4.994;2023-04-28T14:18:02;24.63;;;3.78;;
30505;SDS011;17292;51.600;4.994;2023-04-28T14:20:29;16.80;;;3.20;;
30505;SDS011;17292;51.600;4.994;2023-04-28T14:22:55;14.43;;;3.05;;
30505;SDS011;17292;51.600;4.994;2023-04-28T14:25:22;15.00;;;3.08;;
30505;SDS011;17292;51.600;4.994;2023-04-28T14:27:48;11.15;;;3.25;;
30505;SDS011;17292;51.600;4.994;2023-04-28T14:30:15;19.17;;;3.47;;
30505;SDS011;17292;51.600;4.994;2023-04-28T14:32:41;15.18;;;3.78;;
30505;SDS011;17292;51.600;4.994;2023-04-28T14:35:07;8.10;;;3.00;;
30505;SDS011;17292;51.600;4.994;2023-04-28T14:37:34;16.02;;;3.50;;
30505;SDS011;17292;51.600;4.994;2023-04-28T14:40:00;15.43;;;3.38;;
30505;SDS011;17292;51.600;4.994;2023-04-28T14:42:27;13.15;;;2.97;;
30505;SDS011;17292;51.600;4.994;2023-04-28T14:44:57;12.55;;;3.10;;
30505;SDS011;17292;51.600;4.994;2023-04-28T14:47:23;11.13;;;3.03;;
30505;SDS011;17292;51.600;4.994;2023-04-28T14:49:54;12.65;;;3.25;;
30505;SDS011;17292;51.600;4.994;2023-04-28T14:52:21;16.67;;;3.47;;
30505;SDS011;17292;51.600;4.994;2023-04-28T14:54:47;16.00;;;2.80;;
30505;SDS011;17292;51.600;4.994;2023-04-28T14:57:14;13.65;;;3.35;;
30505;SDS011;17292;51.600;4.994;2023-04-28T14:59:40;8.38;;;3.03;;
30505;SDS011;17292;51.600;4.994;2023-04-28T15:02:06;10.20;;;3.22;;
30505;SDS011;17292;51.600;4.994;2023-04-28T15:04:33;15.57;;;3.65;;
30505;SDS011;17292;51.600;4.994;2023-04-28T15:06:59;8.82;;;3.22;;